createdAt,value
2019-05-16T00:01:19.357Z,53.92
2019-05-16T00:03:48.986Z,52.67
2019-05-16T00:06:18.309Z,51.88
2019-05-16T00:08:48.036Z,53.77
2019-05-16T00:11:18.068Z,54.44
2019-05-16T00:13:48.786Z,52.37
2019-05-16T00:16:18.850Z,53.44
2019-05-16T00:18:48.207Z,54.39
2019-05-16T00:21:17.948Z,52.98
2019-05-16T00:23:48.803Z,52.74
2019-05-16T00:26:19.807Z,54.23
2019-05-16T00:28:48.995Z,54.65
2019-05-16T00:31:18.440Z,55.21
2019-05-16T00:33:48.699Z,56.34
2019-05-16T00:36:18.853Z,56.29
2019-05-16T00:38:48.667Z,54.98
2019-05-16T00:41:17.911Z,55.72
2019-05-16T00:43:48.688Z,55.05
2019-05-16T00:46:20.107Z,57.16
2019-05-16T00:48:48.936Z,55.88
2019-05-16T00:51:18.381Z,56.98
2019-05-16T00:53:48.732Z,57.52
2019-05-16T00:56:18.620Z,55.25
2019-05-16T00:58:48.547Z,55.17
2019-05-16T01:01:18.950Z,56.56
2019-05-16T01:03:48.514Z,56.56
2019-05-16T01:06:22.850Z,58.05
2019-05-16T01:08:49.696Z,57.51
2019-05-16T01:11:18.866Z,57.51
2019-05-16T01:13:48.682Z,57.25
2019-05-16T01:16:18.708Z,56.66
2019-05-16T01:18:48.800Z,57.65
2019-05-16T01:21:18.573Z,57.32
2019-05-16T01:23:49.120Z,58.55
2019-05-16T01:26:18.566Z,57.34
2019-05-16T01:28:48.341Z,57.90
2019-05-16T01:31:19.045Z,58.14
2019-05-16T01:33:47.986Z,57.15
2019-05-16T01:36:26.237Z,58.72
2019-05-16T01:38:48.214Z,59.07
2019-05-16T01:41:18.022Z,58.66
2019-05-16T01:43:48.380Z,59.34
2019-05-16T01:46:18.213Z,60.02
2019-05-16T01:48:48.496Z,60.02
2019-05-16T01:51:18.400Z,58.85
2019-05-16T01:53:48.797Z,59.12
2019-05-16T01:56:18.139Z,58.97
2019-05-16T01:58:48.984Z,58.75
2019-05-16T02:01:19.078Z,58.25
2019-05-16T02:03:48.466Z,59.97
2019-05-16T02:06:18.387Z,62.30
2019-05-16T02:08:48.684Z,63.27
2019-05-16T02:11:18.485Z,63.27
2019-05-16T02:13:48.497Z,64.19
2019-05-16T02:16:18.692Z,64.20
2019-05-16T02:18:48.900Z,64.56
2019-05-16T02:21:18.331Z,64.13
2019-05-16T02:23:51.492Z,65.78
2019-05-16T02:26:19.483Z,65.78
2019-05-16T02:28:50.668Z,65.58
2019-05-16T02:31:22.637Z,63.66
2019-05-16T02:33:51.276Z,62.47
2019-05-16T02:36:21.705Z,63.46
2019-05-16T02:38:55.430Z,62.91
2019-05-16T02:41:23.489Z,62.88
2019-05-16T02:43:53.564Z,64.85
2019-05-16T02:46:22.903Z,66.40
2019-05-16T02:48:52.169Z,66.40
2019-05-16T02:51:21.595Z,66.04
2019-05-16T02:53:51.222Z,64.86
2019-05-16T02:56:21.342Z,64.97
2019-05-16T02:58:51.978Z,65.05
2019-05-16T03:01:21.969Z,64.66
2019-05-16T03:03:51.790Z,65.31
2019-05-16T03:06:21.585Z,65.70
2019-05-16T03:08:51.938Z,67.32
2019-05-16T03:11:21.597Z,67.32
2019-05-16T03:13:53.529Z,66.92
2019-05-16T03:16:26.148Z,67.59
2019-05-16T03:18:55.513Z,67.59
2019-05-16T03:21:24.736Z,67.66
2019-05-16T03:23:53.265Z,67.66
2019-05-16T03:26:22.026Z,66.87
2019-05-16T03:28:52.092Z,68.01
2019-05-16T03:31:24.515Z,67.12
2019-05-16T03:33:59.826Z,67.12
2019-05-16T03:36:25.498Z,66.91
2019-05-16T03:38:54.293Z,66.65
2019-05-16T03:41:23.163Z,65.15
2019-05-16T03:43:52.121Z,63.53
2019-05-16T03:46:21.682Z,61.31
2019-05-16T03:48:51.941Z,60.87
2019-05-16T03:51:21.969Z,60.52
2019-05-16T03:53:51.076Z,58.85
2019-05-16T03:56:21.780Z,61.17
2019-05-16T03:58:51.260Z,59.24
2019-05-16T04:01:21.025Z,59.71
2019-05-16T04:03:51.312Z,59.82
2019-05-16T04:06:22.080Z,57.67
2019-05-16T04:08:51.431Z,57.67
2019-05-16T04:11:23.184Z,56.22
2019-05-16T04:13:51.645Z,56.14
2019-05-16T04:16:21.032Z,55.67
2019-05-16T04:18:51.372Z,55.67
2019-05-16T04:21:21.835Z,55.63
2019-05-16T04:23:50.864Z,55.78
2019-05-16T04:26:21.768Z,55.02
2019-05-16T04:28:51.651Z,53.61
2019-05-16T04:31:22.107Z,52.62
2019-05-16T04:33:51.722Z,52.26
2019-05-16T04:36:21.484Z,53.41
2019-05-16T04:38:51.380Z,53.96
2019-05-16T04:42:05.781Z,51.51
2019-05-16T04:44:41.725Z,51.51
2019-05-16T04:47:11.104Z,52.20
2019-05-16T04:49:41.157Z,52.20
2019-05-16T04:52:11.285Z,51.06
2019-05-16T04:54:41.882Z,51.24
2019-05-16T04:57:11.849Z,51.27
2019-05-16T04:59:41.956Z,50.31
2019-05-16T05:02:12.504Z,49.45
2019-05-16T05:04:41.514Z,48.69
2019-05-16T05:07:11.097Z,50.10
2019-05-16T05:09:41.126Z,50.10
2019-05-16T05:12:11.400Z,49.06
2019-05-16T05:14:41.822Z,50.62
2019-05-16T05:17:10.939Z,49.29
2019-05-16T05:19:41.409Z,49.45
2019-05-16T05:22:10.439Z,47.30
2019-05-16T05:24:40.572Z,46.69
2019-05-16T05:27:10.544Z,46.69
2019-05-16T05:29:39.918Z,46.77
2019-05-16T05:32:13.994Z,46.01
2019-05-16T05:37:23.483Z,45.17
2019-05-16T05:39:52.559Z,44.34
2019-05-16T05:42:21.618Z,43.24
2019-05-16T05:44:50.921Z,43.54
2019-05-16T05:47:20.201Z,43.54
2019-05-16T05:49:49.866Z,42.91
2019-05-16T05:52:20.770Z,42.56
2019-05-16T05:54:50.354Z,41.50
2019-05-16T05:57:20.886Z,41.86
2019-05-16T05:59:50.306Z,41.57
2019-05-16T06:02:20.133Z,41.58
2019-05-16T06:04:50.224Z,42.22
2019-05-16T06:07:20.483Z,43.54
2019-05-16T06:09:55.527Z,43.50
2019-05-16T06:12:21.248Z,44.13
2019-05-16T06:14:50.645Z,44.76
2019-05-16T06:17:20.166Z,44.74
2019-05-16T06:19:49.737Z,45.92
2019-05-16T06:22:20.583Z,47.68
2019-05-16T06:24:50.582Z,45.45
2019-05-16T06:27:20.881Z,45.91
2019-05-16T06:29:50.117Z,45.70
2019-05-16T06:32:19.855Z,44.65
2019-05-16T06:34:50.770Z,44.95
2019-05-16T06:37:20.512Z,44.62
2019-05-16T06:39:50.235Z,44.12
2019-05-16T06:42:20.620Z,43.58
2019-05-16T06:44:50.411Z,42.88
2019-05-16T06:47:20.671Z,42.13
2019-05-16T06:49:50.997Z,42.09
2019-05-16T06:52:20.303Z,41.89
2019-05-16T06:54:50.431Z,41.53
2019-05-16T06:57:20.698Z,43.54
2019-05-16T06:59:50.622Z,43.54
2019-05-16T07:02:30.496Z,43.64
2019-05-16T07:04:54.014Z,43.64
2019-05-16T07:07:23.617Z,42.23
2019-05-16T07:10:20.334Z,42.01
2019-05-16T07:12:50.505Z,42.01
2019-05-16T07:15:20.706Z,43.22
2019-05-16T07:17:50.979Z,43.22
2019-05-16T07:20:23.449Z,41.27
2019-05-16T07:22:52.563Z,40.03
2019-05-16T07:25:26.984Z,41.37
2019-05-16T07:27:56.138Z,41.37
2019-05-16T07:32:05.350Z,39.96
2019-05-16T07:34:40.395Z,39.96
2019-05-16T07:40:15.594Z,36.60
2019-05-16T07:42:31.265Z,35.91
2019-05-16T07:46:11.960Z,37.16
2019-05-16T07:48:40.555Z,35.98
2019-05-16T07:51:10.549Z,37.50
2019-05-16T07:53:40.248Z,36.62
2019-05-16T07:56:10.577Z,36.78
2019-05-16T07:58:42.455Z,36.78
2019-05-16T08:01:12.884Z,38.15
2019-05-16T08:03:44.096Z,38.15
2019-05-16T08:06:13.571Z,37.11
2019-05-16T08:08:42.413Z,35.62
2019-05-16T08:11:12.448Z,35.62
2019-05-16T08:13:41.955Z,35.05
2019-05-16T08:16:11.448Z,35.05
2019-05-16T08:18:45.284Z,33.72
2019-05-16T08:23:46.258Z,34.92
2019-05-16T08:26:21.529Z,36.36
2019-05-16T08:28:50.394Z,38.59
2019-05-16T08:33:53.506Z,37.02
2019-05-16T08:36:22.577Z,35.68
2019-05-16T08:38:55.904Z,36.23
2019-05-16T08:41:25.120Z,36.23
2019-05-16T08:44:07.119Z,35.97
2019-05-16T08:46:42.427Z,36.05
2019-05-16T08:49:12.101Z,36.91
2019-05-16T08:51:42.614Z,35.18
2019-05-16T08:54:15.124Z,34.51
2019-05-16T08:56:44.788Z,34.46
2019-05-16T08:59:14.678Z,36.31
2019-05-16T09:01:52.123Z,35.21
2019-05-16T09:04:14.328Z,34.24
2019-05-16T09:06:43.842Z,33.61
2019-05-16T09:09:29.937Z,33.13
2019-05-16T09:10:31.317Z,33.72
2019-05-16T09:10:41.639Z,38.59
2019-05-16T09:11:45.830Z,32.52
2019-05-16T09:14:17.214Z,32.36
2019-05-16T09:16:49.274Z,34.16
2019-05-16T09:19:17.652Z,35.06
2019-05-16T09:21:47.692Z,33.09
2019-05-16T09:24:20.744Z,33.09
2019-05-16T09:26:52.153Z,36.26
2019-05-16T09:29:22.307Z,35.91
2019-05-16T09:32:08.100Z,34.36
2019-05-16T09:34:23.817Z,32.03
2019-05-16T09:36:56.619Z,29.01
2019-05-16T09:39:24.526Z,26.18
2019-05-16T09:41:55.526Z,25.83
2019-05-16T09:44:27.254Z,25.83
2019-05-16T09:46:57.608Z,26.29
2019-05-16T09:49:27.024Z,25.30
2019-05-16T09:51:56.871Z,23.29
2019-05-16T09:54:29.788Z,21.53
2019-05-16T09:57:06.395Z,21.53
2019-05-16T09:59:38.514Z,21.32
2019-05-16T10:02:08.053Z,21.22
2019-05-16T10:04:40.918Z,22.30
2019-05-16T10:07:12.443Z,22.92
2019-05-16T10:09:50.183Z,23.57
2019-05-16T10:15:17.814Z,23.30
2019-05-16T10:17:47.997Z,23.03
2019-05-16T10:20:18.650Z,23.03
2019-05-16T10:22:50.571Z,22.20
2019-05-16T10:25:19.828Z,22.20
2019-05-16T10:27:49.000Z,21.89
2019-05-16T10:30:21.003Z,22.54
2019-05-16T10:32:50.497Z,22.92
2019-05-16T10:35:20.751Z,21.71
2019-05-16T10:37:50.221Z,23.13
2019-05-16T10:40:19.598Z,22.44
2019-05-16T10:42:48.947Z,22.82
2019-05-16T10:45:18.840Z,22.28
2019-05-16T10:47:48.287Z,22.52
2019-05-16T10:50:17.906Z,23.23
2019-05-16T10:53:03.885Z,27.23
2019-05-16T10:55:19.072Z,25.29
2019-05-16T10:57:48.681Z,25.29
2019-05-16T11:00:48.932Z,23.70
2019-05-16T11:02:58.717Z,23.59
2019-05-16T11:05:33.100Z,23.80
2019-05-16T11:07:57.306Z,24.25
2019-05-16T11:10:29.541Z,25.63
2019-05-16T11:12:59.707Z,25.45
2019-05-16T11:15:31.863Z,25.88
2019-05-16T11:18:02.572Z,27.28
2019-05-16T11:20:33.433Z,27.62
2019-05-16T11:23:03.773Z,27.62
2019-05-16T11:25:36.513Z,26.21
2019-05-16T11:28:07.309Z,25.34
2019-05-16T11:30:37.545Z,24.98
2019-05-16T11:33:07.738Z,24.29
2019-05-16T11:35:38.641Z,23.59
2019-05-16T11:38:08.834Z,21.61
2019-05-16T11:40:38.568Z,21.61
2019-05-16T11:43:17.473Z,20.89
2019-05-16T11:45:39.762Z,21.30
2019-05-16T11:48:08.388Z,22.76
2019-05-16T11:50:38.112Z,22.43
2019-05-16T11:53:08.050Z,23.26
2019-05-16T11:55:50.090Z,22.63
2019-05-16T11:58:09.298Z,22.65
2019-05-16T12:00:38.099Z,23.25
2019-05-16T12:03:08.504Z,22.73
2019-05-16T12:05:37.980Z,23.86
2019-05-16T12:08:07.928Z,23.86
2019-05-16T12:10:37.402Z,23.28
2019-05-16T12:13:07.607Z,22.54
2019-05-16T12:15:37.777Z,21.45
2019-05-16T12:18:08.892Z,21.45
2019-05-16T12:20:38.480Z,21.51
2019-05-16T12:23:08.146Z,20.24
2019-05-16T12:25:37.445Z,20.24
2019-05-16T12:28:08.723Z,21.51
2019-05-16T12:30:40.474Z,21.60
2019-05-16T12:33:09.961Z,20.24
2019-05-16T12:35:39.566Z,19.62
2019-05-16T12:38:09.124Z,22.34
2019-05-16T12:40:38.690Z,22.34
2019-05-16T12:43:08.198Z,23.17
2019-05-16T12:45:38.892Z,24.68
2019-05-16T12:48:08.642Z,24.66
2019-05-16T12:50:40.939Z,22.65
2019-05-16T12:53:10.777Z,22.65
2019-05-16T12:55:40.133Z,22.73
2019-05-16T12:58:13.594Z,22.74
2019-05-16T13:00:44.007Z,21.83
2019-05-16T13:03:14.806Z,21.57
2019-05-16T13:07:09.296Z,22.15
2019-05-16T13:09:39.327Z,22.28
2019-05-16T13:12:08.885Z,22.72
2019-05-16T13:14:40.429Z,22.62
2019-05-16T13:17:09.890Z,23.79
2019-05-16T13:19:44.207Z,23.79
2019-05-16T13:22:13.401Z,24.43
2019-05-16T13:24:43.545Z,23.91
2019-05-16T13:27:12.768Z,23.91
2019-05-16T13:29:41.946Z,23.98
2019-05-16T13:32:11.019Z,24.46
2019-05-16T13:34:40.740Z,24.34
2019-05-16T13:37:09.351Z,23.85
2019-05-16T13:39:38.387Z,24.21
2019-05-16T13:42:08.225Z,23.53
2019-05-16T13:44:38.615Z,22.77
2019-05-16T13:47:07.651Z,25.42
2019-05-16T13:49:38.740Z,25.82
2019-05-16T13:52:07.950Z,24.13
2019-05-16T13:54:37.306Z,24.75
2019-05-16T13:57:07.089Z,24.51
2019-05-16T13:59:37.414Z,24.00
2019-05-16T14:02:07.999Z,23.95
2019-05-16T14:04:37.581Z,24.42
2019-05-16T14:07:07.541Z,23.32
2019-05-16T14:20:14.907Z,22.98
2019-05-16T14:28:00.859Z,23.32
2019-05-16T14:34:29.707Z,25.35
2019-05-16T14:39:09.519Z,24.94
2019-05-16T14:41:33.910Z,24.35
2019-05-16T14:45:10.543Z,28.43
2019-05-16T14:49:08.739Z,28.43
2019-05-16T14:51:38.680Z,27.78
2019-05-16T14:54:08.180Z,27.78
2019-05-16T14:56:38.684Z,28.18
2019-05-16T14:59:08.333Z,27.37
2019-05-16T15:01:37.938Z,27.17
2019-05-16T15:04:07.563Z,26.84
2019-05-16T15:06:37.586Z,27.36
2019-05-16T15:09:08.576Z,27.36
2019-05-16T15:11:38.213Z,27.10
2019-05-16T15:14:07.443Z,27.10
2019-05-16T15:16:37.012Z,27.04
2019-05-16T15:19:08.205Z,27.23
2019-05-16T15:21:37.577Z,27.45
2019-05-16T15:24:07.540Z,27.38
2019-05-16T15:26:37.808Z,26.80
2019-05-16T15:29:08.305Z,26.18
2019-05-16T15:31:39.476Z,27.29
2019-05-16T15:34:08.582Z,27.67
2019-05-16T15:36:37.442Z,28.39
2019-05-16T15:39:10.035Z,28.39
2019-05-16T15:41:39.134Z,28.23
2019-05-16T15:44:08.169Z,30.23
2019-05-16T15:46:37.868Z,29.34
2019-05-16T15:49:10.082Z,29.07
2019-05-16T15:51:38.917Z,31.23
2019-05-16T15:54:07.944Z,31.23
2019-05-16T15:56:42.883Z,29.88
2019-05-16T15:59:11.973Z,29.92
2019-05-16T16:01:41.421Z,30.39
2019-05-16T16:04:09.857Z,32.00
2019-05-16T16:06:38.745Z,31.72
2019-05-16T16:09:08.716Z,32.78
2019-05-16T16:11:38.301Z,32.40
2019-05-16T16:14:09.481Z,33.47
2019-05-16T16:16:39.428Z,31.75
2019-05-16T16:19:08.766Z,31.75
2019-05-16T16:21:38.697Z,31.08
2019-05-16T16:24:09.278Z,33.30
2019-05-16T16:26:38.303Z,33.67
2019-05-16T16:29:08.839Z,34.91
2019-05-16T16:31:39.027Z,33.78
2019-05-16T16:34:17.357Z,34.82
2019-05-16T16:36:47.595Z,31.63
2019-05-16T16:39:16.102Z,31.63
2019-05-16T16:41:47.869Z,32.36
2019-05-16T16:44:18.195Z,34.21
2019-05-16T16:46:47.789Z,34.21
2019-05-16T16:49:17.453Z,33.46
2019-05-16T16:51:48.007Z,33.64
2019-05-16T16:54:17.981Z,33.06
2019-05-16T16:56:47.447Z,32.94
2019-05-16T16:59:17.355Z,34.86
2019-05-16T17:01:47.509Z,34.86
2019-05-16T17:04:17.486Z,35.34
2019-05-16T17:06:46.997Z,35.34
2019-05-16T17:09:16.304Z,36.74
2019-05-16T17:11:46.613Z,36.04
2019-05-16T17:14:17.484Z,35.81
2019-05-16T17:16:47.371Z,36.22
2019-05-16T17:19:16.411Z,36.55
2019-05-16T17:21:55.191Z,36.78
2019-05-16T17:24:16.788Z,37.23
2019-05-16T17:26:47.737Z,36.85
2019-05-16T17:29:17.453Z,37.05
2019-05-16T17:31:53.635Z,36.70
2019-05-16T17:34:17.654Z,37.06
2019-05-16T17:36:46.705Z,38.27
2019-05-16T17:39:18.070Z,38.27
2019-05-16T17:41:52.067Z,37.98
2019-05-16T17:44:18.306Z,37.82
2019-05-16T17:46:47.698Z,38.14
2019-05-16T17:49:18.278Z,38.14
2019-05-16T17:51:47.598Z,37.84
2019-05-16T17:54:17.362Z,38.85
2019-05-16T17:56:47.763Z,38.85
2019-05-16T17:59:17.191Z,38.58
2019-05-16T18:01:46.793Z,39.22
2019-05-16T18:04:17.326Z,39.22
2019-05-16T18:06:47.242Z,39.74
2019-05-16T18:09:17.035Z,39.08
2019-05-16T18:11:46.919Z,39.71
2019-05-16T18:14:17.591Z,39.78
2019-05-16T18:16:53.732Z,39.87
2019-05-16T18:19:17.817Z,39.93
2019-05-16T18:21:47.200Z,39.93
2019-05-16T18:24:16.700Z,39.90
2019-05-16T18:26:47.127Z,40.10
2019-05-16T18:29:16.577Z,41.42
2019-05-16T18:31:47.097Z,41.81
2019-05-16T18:34:16.907Z,41.81
2019-05-16T18:36:46.780Z,41.58
2019-05-16T18:39:16.571Z,41.88
2019-05-16T18:41:47.181Z,41.83
2019-05-16T18:44:17.599Z,41.83
2019-05-16T18:47:04.055Z,41.93
2019-05-16T18:49:24.055Z,41.93
2019-05-16T18:51:53.409Z,41.49
2019-05-16T18:54:22.606Z,41.00
2019-05-16T18:56:51.001Z,41.48
2019-05-16T18:59:19.988Z,41.48
2019-05-16T19:01:55.519Z,41.13
2019-05-16T19:04:26.888Z,41.25
2019-05-16T19:06:56.639Z,42.07
2019-05-16T19:09:26.979Z,41.66
2019-05-16T19:11:56.565Z,41.66
2019-05-16T19:14:28.569Z,41.90
2019-05-16T19:16:58.666Z,41.55
2019-05-16T19:19:28.319Z,41.26
2019-05-16T19:21:59.549Z,41.26
2019-05-16T19:24:28.512Z,41.74
2019-05-16T19:26:57.602Z,42.32
2019-05-16T19:29:26.495Z,43.51
2019-05-16T19:31:57.142Z,43.16
2019-05-16T19:34:27.049Z,43.16
2019-05-16T19:36:57.494Z,43.72
2019-05-16T19:39:28.755Z,44.29
2019-05-16T19:41:58.308Z,44.29
2019-05-16T19:44:27.524Z,44.92
2019-05-16T19:46:57.426Z,45.06
2019-05-16T19:49:27.622Z,45.06
2019-05-16T19:51:56.548Z,44.75
2019-05-16T19:54:27.038Z,44.62
2019-05-16T19:56:56.600Z,43.91
2019-05-16T19:59:27.243Z,43.49
2019-05-16T20:01:56.949Z,43.49
2019-05-16T20:04:27.365Z,43.63
2019-05-16T20:06:56.811Z,43.61
2019-05-16T20:09:26.887Z,44.00
2019-05-16T20:11:57.454Z,44.60
2019-05-16T20:14:27.347Z,44.91
2019-05-16T20:16:56.714Z,45.55
2019-05-16T20:19:26.779Z,45.98
2019-05-16T20:21:58.039Z,46.07
2019-05-16T20:24:27.498Z,46.82
2019-05-16T20:26:57.142Z,46.68
2019-05-16T20:29:27.431Z,46.74
2019-05-16T20:31:56.452Z,46.20
2019-05-16T20:34:27.433Z,46.20
2019-05-16T20:36:57.278Z,46.06
2019-05-16T20:39:26.916Z,45.53
2019-05-16T20:41:56.960Z,46.04
2019-05-16T20:44:27.568Z,46.21
2019-05-16T20:46:58.287Z,45.89
2019-05-16T20:49:27.643Z,46.09
2019-05-16T20:51:58.157Z,46.88
2019-05-16T20:54:27.562Z,46.88
2019-05-16T20:56:57.521Z,47.57
2019-05-16T20:59:26.671Z,48.30
2019-05-16T21:01:57.491Z,48.30
2019-05-16T21:04:26.726Z,48.76
2019-05-16T21:07:05.727Z,47.96
2019-05-16T21:09:28.586Z,46.88
2019-05-16T21:11:57.154Z,46.29
2019-05-16T21:14:27.080Z,46.29
2019-05-16T21:17:01.247Z,48.20
2019-05-16T21:19:29.533Z,48.97
2019-05-16T21:21:58.579Z,48.44
2019-05-16T21:24:31.635Z,48.93
2019-05-16T21:26:59.876Z,48.93
2019-05-16T21:29:29.324Z,49.47
2019-05-16T21:31:58.976Z,49.96
2019-05-16T21:34:28.606Z,49.97
2019-05-16T21:37:10.991Z,49.53
2019-05-16T21:39:30.072Z,49.53
2019-05-16T21:41:59.586Z,50.05
2019-05-16T21:44:29.061Z,50.73
2019-05-16T21:46:58.477Z,50.73
2019-05-16T21:49:28.772Z,51.28
2019-05-16T21:51:57.998Z,51.28
2019-05-16T21:54:28.839Z,51.66
2019-05-16T21:56:58.478Z,52.50
2019-05-16T21:59:28.831Z,53.11
2019-05-16T22:01:58.480Z,54.19
2019-05-16T22:04:28.552Z,56.30
2019-05-16T22:06:57.735Z,56.40
2019-05-16T22:09:26.806Z,56.40
2019-05-16T22:11:57.367Z,56.46
2019-05-16T22:14:40.793Z,57.69
2019-05-16T22:17:11.671Z,57.54
2019-05-16T22:19:40.923Z,59.70
2019-05-16T22:22:10.896Z,59.70
2019-05-16T22:24:40.508Z,59.77
2019-05-16T22:27:10.802Z,60.14
2019-05-16T22:29:40.498Z,60.14
2019-05-16T22:32:10.591Z,61.08
2019-05-16T22:34:40.006Z,60.96
2019-05-16T22:37:09.724Z,61.51
2019-05-16T22:39:38.053Z,61.89
2019-05-16T22:42:09.403Z,62.26
2019-05-16T22:44:38.878Z,62.23
2019-05-16T22:47:11.528Z,62.44
2019-05-16T22:49:40.973Z,63.71
2019-05-16T22:52:10.122Z,63.71
2019-05-16T22:54:39.759Z,65.05
2019-05-16T22:57:08.974Z,65.63
2019-05-16T22:59:38.440Z,65.56
2019-05-16T23:02:11.301Z,66.23
2019-05-16T23:04:40.062Z,65.91
2019-05-16T23:07:09.582Z,65.19
2019-05-16T23:09:38.901Z,65.92
2019-05-16T23:12:08.555Z,65.92
2019-05-16T23:14:37.662Z,66.03
2019-05-16T23:17:07.136Z,68.32
2019-05-16T23:19:36.835Z,68.32
2019-05-16T23:22:08.380Z,68.98
2019-05-16T23:24:37.629Z,68.34
2019-05-16T23:27:07.919Z,67.72
2019-05-16T23:29:37.464Z,68.90
2019-05-16T23:32:07.463Z,68.82
2019-05-16T23:34:37.581Z,68.64
2019-05-16T23:37:06.594Z,69.08
2019-05-16T23:39:37.752Z,69.04
2019-05-16T23:42:06.706Z,68.35
2019-05-16T23:44:36.694Z,68.35
2019-05-16T23:47:07.174Z,68.56
2019-05-16T23:49:36.957Z,69.60
2019-05-16T23:52:07.527Z,69.39
2019-05-16T23:54:36.872Z,69.61
2019-05-16T23:57:06.706Z,69.61
2019-05-16T23:59:36.853Z,69.72
